sensor_id;sensor_type;location;lat;lon;timestamp;temperature;humidity
15690;DHT22;7945;48.816;11.506;2023-03-01T00:00:53;2.60;98.70
15690;DHT22;7945;48.816;11.506;2023-03-01T00:03:19;2.70;98.60
15690;DHT22;7945;48.816;11.506;2023-03-01T00:05:47;2.70;98.60
15690;DHT22;7945;48.816;11.506;2023-03-01T00:08:15;2.70;98.70
15690;DHT22;7945;48.816;11.506;2023-03-01T00:10:41;2.70;98.70
15690;DHT22;7945;48.816;11.506;2023-03-01T00:13:08;2.70;98.70
15690;DHT22;7945;48.816;11.506;2023-03-01T00:15:38;2.70;98.70
15690;DHT22;7945;48.816;11.506;2023-03-01T00:18:05;2.70;98.70
15690;DHT22;7945;48.816;11.506;2023-03-01T00:20:32;2.70;98.70
15690;DHT22;7945;48.816;11.506;2023-03-01T00:22:59;2.70;98.70
15690;DHT22;7945;48.816;11.506;2023-03-01T00:25:27;2.70;98.70
15690;DHT22;7945;48.816;11.506;2023-03-01T00:27:53;2.70;98.70
15690;DHT22;7945;48.816;11.506;2023-03-01T00:30:20;2.70;98.70
15690;DHT22;7945;48.816;11.506;2023-03-01T00:32:47;2.70;98.70
15690;DHT22;7945;48.816;11.506;2023-03-01T00:35:14;2.70;98.80
15690;DHT22;7945;48.816;11.506;2023-03-01T00:37:40;2.60;98.70
15690;DHT22;7945;48.816;11.506;2023-03-01T00:40:08;2.60;98.80
15690;DHT22;7945;48.816;11.506;2023-03-01T00:42:37;2.60;98.90
15690;DHT22;7945;48.816;11.506;2023-03-01T00:45:04;2.60;98.90
15690;DHT22;7945;48.816;11.506;2023-03-01T00:47:33;2.60;99.00
15690;DHT22;7945;48.816;11.506;2023-03-01T00:50:00;2.50;99.20
15690;DHT22;7945;48.816;11.506;2023-03-01T00:52:26;2.50;99.00
15690;DHT22;7945;48.816;11.506;2023-03-01T00:54:53;2.50;98.90
15690;DHT22;7945;48.816;11.506;2023-03-01T00:57:20;2.50;99.00
15690;DHT22;7945;48.816;11.506;2023-03-01T00:59:48;2.50;99.00
15690;DHT22;7945;48.816;11.506;2023-03-01T01:02:15;2.50;99.00
15690;DHT22;7945;48.816;11.506;2023-03-01T01:04:41;2.50;99.00
15690;DHT22;7945;48.816;11.506;2023-03-01T01:07:08;2.40;99.10
15690;DHT22;7945;48.816;11.506;2023-03-01T01:09:35;2.50;99.10
15690;DHT22;7945;48.816;11.506;2023-03-01T01:12:02;2.40;99.10
15690;DHT22;7945;48.816;11.506;2023-03-01T01:14:29;2.40;99.20
15690;DHT22;7945;48.816;11.506;2023-03-01T01:16:57;2.40;99.10
15690;DHT22;7945;48.816;11.506;2023-03-01T01:19:24;2.40;99.20
15690;DHT22;7945;48.816;11.506;2023-03-01T01:21:52;2.40;99.20
15690;DHT22;7945;48.816;11.506;2023-03-01T01:24:19;2.40;99.20
15690;DHT22;7945;48.816;11.506;2023-03-01T01:26:46;2.30;99.20
15690;DHT22;7945;48.816;11.506;2023-03-01T01:29:13;2.30;99.30
15690;DHT22;7945;48.816;11.506;2023-03-01T01:31:41;2.30;99.30
15690;DHT22;7945;48.816;11.506;2023-03-01T01:34:15;2.40;99.40
15690;DHT22;7945;48.816;11.506;2023-03-01T01:36:42;2.30;99.30
15690;DHT22;7945;48.816;11.506;2023-03-01T01:39:09;2.30;99.40
15690;DHT22;7945;48.816;11.506;2023-03-01T01:41:39;2.30;99.50
15690;DHT22;7945;48.816;11.506;2023-03-01T01:44:15;2.30;99.40
15690;DHT22;7945;48.816;11.506;2023-03-01T01:46:45;2.30;99.40
15690;DHT22;7945;48.816;11.506;2023-03-01T01:49:21;2.30;99.50
15690;DHT22;7945;48.816;11.506;2023-03-01T01:51:51;2.30;99.50
15690;DHT22;7945;48.816;11.506;2023-03-01T01:54:23;2.30;99.50
15690;DHT22;7945;48.816;11.506;2023-03-01T01:56:55;2.30;99.50
15690;DHT22;7945;48.816;11.506;2023-03-01T01:59:24;2.30;99.50
15690;DHT22;7945;48.816;11.506;2023-03-01T02:01:51;2.30;99.50
15690;DHT22;7945;48.816;11.506;2023-03-01T02:04:20;2.30;99.50
15690;DHT22;7945;48.816;11.506;2023-03-01T02:06:49;2.30;99.50
15690;DHT22;7945;48.816;11.506;2023-03-01T02:09:19;2.30;99.50
15690;DHT22;7945;48.816;11.506;2023-03-01T02:11:47;2.30;99.50
15690;DHT22;7945;48.816;11.506;2023-03-01T02:14:15;2.30;99.40
15690;DHT22;7945;48.816;11.506;2023-03-01T02:16:42;2.30;99.50
15690;DHT22;7945;48.816;11.506;2023-03-01T02:19:13;2.30;99.50
15690;DHT22;7945;48.816;11.506;2023-03-01T02:21:54;2.30;99.50
15690;DHT22;7945;48.816;11.506;2023-03-01T02:24:28;2.30;99.50
15690;DHT22;7945;48.816;11.506;2023-03-01T02:27:00;2.30;99.50
15690;DHT22;7945;48.816;11.506;2023-03-01T02:29:28;2.30;99.50
15690;DHT22;7945;48.816;11.506;2023-03-01T02:31:58;2.20;99.50
15690;DHT22;7945;48.816;11.506;2023-03-01T02:34:26;2.20;99.50
15690;DHT22;7945;48.816;11.506;2023-03-01T02:36:57;2.20;99.50
15690;DHT22;7945;48.816;11.506;2023-03-01T02:39:28;2.20;99.50
15690;DHT22;7945;48.816;11.506;2023-03-01T02:41:57;2.20;99.50
15690;DHT22;7945;48.816;11.506;2023-03-01T02:44:24;2.20;99.50
15690;DHT22;7945;48.816;11.506;2023-03-01T02:46:54;2.20;99.40
15690;DHT22;7945;48.816;11.506;2023-03-01T02:49:25;2.20;99.70
15690;DHT22;7945;48.816;11.506;2023-03-01T02:52:06;2.20;99.40
15690;DHT22;7945;48.816;11.506;2023-03-01T02:54:39;2.20;99.40
15690;DHT22;7945;48.816;11.506;2023-03-01T02:57:07;2.10;99.50
15690;DHT22;7945;48.816;11.506;2023-03-01T02:59:35;2.10;99.50
15690;DHT22;7945;48.816;11.506;2023-03-01T03:02:06;2.10;99.60
15690;DHT22;7945;48.816;11.506;2023-03-01T03:04:32;2.00;99.60
15690;DHT22;7945;48.816;11.506;2023-03-01T03:06:59;2.00;99.60
15690;DHT22;7945;48.816;11.506;2023-03-01T03:09:26;2.00;99.50
15690;DHT22;7945;48.816;11.506;2023-03-01T03:11:53;1.90;99.60
15690;DHT22;7945;48.816;11.506;2023-03-01T03:14:20;1.90;99.60
15690;DHT22;7945;48.816;11.506;2023-03-01T03:16:49;1.90;99.60
15690;DHT22;7945;48.816;11.506;2023-03-01T03:19:18;1.80;99.70
15690;DHT22;7945;48.816;11.506;2023-03-01T03:21:45;1.80;99.80
15690;DHT22;7945;48.816;11.506;2023-03-01T03:24:12;1.70;99.80
15690;DHT22;7945;48.816;11.506;2023-03-01T03:26:39;1.70;99.90
15690;DHT22;7945;48.816;11.506;2023-03-01T03:29:05;1.70;99.90
15690;DHT22;7945;48.816;11.506;2023-03-01T03:31:32;1.60;99.90
15690;DHT22;7945;48.816;11.506;2023-03-01T03:34:00;1.60;99.90
15690;DHT22;7945;48.816;11.506;2023-03-01T03:36:28;1.60;99.90
15690;DHT22;7945;48.816;11.506;2023-03-01T03:38:54;1.60;99.90
15690;DHT22;7945;48.816;11.506;2023-03-01T03:41:21;1.60;99.90
15690;DHT22;7945;48.816;11.506;2023-03-01T03:43:48;1.60;99.90
15690;DHT22;7945;48.816;11.506;2023-03-01T03:46:14;1.50;99.90
15690;DHT22;7945;48.816;11.506;2023-03-01T03:48:44;1.50;99.90
15690;DHT22;7945;48.816;11.506;2023-03-01T03:51:12;1.50;99.90
15690;DHT22;7945;48.816;11.506;2023-03-01T03:53:41;1.50;99.90
15690;DHT22;7945;48.816;11.506;2023-03-01T03:56:08;1.50;99.90
15690;DHT22;7945;48.816;11.506;2023-03-01T03:58:35;1.50;99.90
15690;DHT22;7945;48.816;11.506;2023-03-01T04:01:02;1.40;99.90
15690;DHT22;7945;48.816;11.506;2023-03-01T04:03:30;1.40;99.90
15690;DHT22;7945;48.816;11.506;2023-03-01T04:05:57;1.40;99.90
15690;DHT22;7945;48.816;11.506;2023-03-01T04:08:25;1.40;99.90
15690;DHT22;7945;48.816;11.506;2023-03-01T04:10:57;1.30;99.90
15690;DHT22;7945;48.816;11.506;2023-03-01T04:13:24;1.30;99.90
15690;DHT22;7945;48.816;11.506;2023-03-01T04:15:52;1.30;99.90
15690;DHT22;7945;48.816;11.506;2023-03-01T04:18:21;1.30;99.90
15690;DHT22;7945;48.816;11.506;2023-03-01T04:20:49;1.30;99.90
15690;DHT22;7945;48.816;11.506;2023-03-01T04:23:18;1.40;99.90
15690;DHT22;7945;48.816;11.506;2023-03-01T04:25:47;1.50;99.90
15690;DHT22;7945;48.816;11.506;2023-03-01T04:28:21;1.50;99.90
15690;DHT22;7945;48.816;11.506;2023-03-01T04:30:50;1.50;99.90
15690;DHT22;7945;48.816;11.506;2023-03-01T04:33:17;1.40;99.90
15690;DHT22;7945;48.816;11.506;2023-03-01T04:35:44;1.40;99.90
15690;DHT22;7945;48.816;11.506;2023-03-01T04:38:11;1.40;99.90
15690;DHT22;7945;48.816;11.506;2023-03-01T04:40:37;1.30;99.90
15690;DHT22;7945;48.816;11.506;2023-03-01T04:43:04;1.20;99.90
15690;DHT22;7945;48.816;11.506;2023-03-01T04:45:33;1.20;99.90
15690;DHT22;7945;48.816;11.506;2023-03-01T04:48:01;1.10;99.90
15690;DHT22;7945;48.816;11.506;2023-03-01T04:50:27;1.10;99.90
15690;DHT22;7945;48.816;11.506;2023-03-01T04:52:55;1.10;99.90
15690;DHT22;7945;48.816;11.506;2023-03-01T04:55:24;1.00;99.90
15690;DHT22;7945;48.816;11.506;2023-03-01T04:57:51;1.00;99.90
15690;DHT22;7945;48.816;11.506;2023-03-01T05:00:18;1.00;99.90
15690;DHT22;7945;48.816;11.506;2023-03-01T05:02:51;0.90;99.90
15690;DHT22;7945;48.816;11.506;2023-03-01T05:05:25;0.90;99.90
15690;DHT22;7945;48.816;11.506;2023-03-01T05:07:54;0.90;99.90
15690;DHT22;7945;48.816;11.506;2023-03-01T05:10:21;0.90;99.90
15690;DHT22;7945;48.816;11.506;2023-03-01T05:12:48;0.90;99.90
15690;DHT22;7945;48.816;11.506;2023-03-01T05:15:17;0.90;99.90
15690;DHT22;7945;48.816;11.506;2023-03-01T05:17:44;0.90;99.90
15690;DHT22;7945;48.816;11.506;2023-03-01T05:20:13;0.90;99.90
15690;DHT22;7945;48.816;11.506;2023-03-01T05:22:39;0.90;99.90
15690;DHT22;7945;48.816;11.506;2023-03-01T05:25:07;0.90;99.90
15690;DHT22;7945;48.816;11.506;2023-03-01T05:27:33;0.90;99.90
15690;DHT22;7945;48.816;11.506;2023-03-01T05:30:00;0.90;99.90
15690;DHT22;7945;48.816;11.506;2023-03-01T05:32:39;0.90;99.90
15690;DHT22;7945;48.816;11.506;2023-03-01T05:35:06;0.90;99.90
15690;DHT22;7945;48.816;11.506;2023-03-01T05:37:34;0.90;99.90
15690;DHT22;7945;48.816;11.506;2023-03-01T05:40:01;0.90;99.90
15690;DHT22;7945;48.816;11.506;2023-03-01T05:42:30;0.80;99.90
15690;DHT22;7945;48.816;11.506;2023-03-01T05:44:57;0.90;99.90
15690;DHT22;7945;48.816;11.506;2023-03-01T05:47:24;0.80;99.90
15690;DHT22;7945;48.816;11.506;2023-03-01T05:49:50;0.80;99.90
15690;DHT22;7945;48.816;11.506;2023-03-01T05:52:17;0.80;99.90
15690;DHT22;7945;48.816;11.506;2023-03-01T05:54:45;0.80;99.90
15690;DHT22;7945;48.816;11.506;2023-03-01T05:57:12;0.70;99.90
15690;DHT22;7945;48.816;11.506;2023-03-01T05:59:38;0.70;99.90
15690;DHT22;7945;48.816;11.506;2023-03-01T06:02:05;0.70;99.90
15690;DHT22;7945;48.816;11.506;2023-03-01T06:04:32;0.70;99.90
15690;DHT22;7945;48.816;11.506;2023-03-01T06:06:58;0.70;99.90
15690;DHT22;7945;48.816;11.506;2023-03-01T06:09:25;0.70;99.90
15690;DHT22;7945;48.816;11.506;2023-03-01T06:15:16;0.70;99.90
15690;DHT22;7945;48.816;11.506;2023-03-01T06:17:45;0.70;99.90
15690;DHT22;7945;48.816;11.506;2023-03-01T06:20:14;0.70;99.90
15690;DHT22;7945;48.816;11.506;2023-03-01T06:22:42;0.70;99.90
15690;DHT22;7945;48.816;11.506;2023-03-01T06:25:10;1.00;99.90
15690;DHT22;7945;48.816;11.506;2023-03-01T06:27:38;1.20;99.90
15690;DHT22;7945;48.816;11.506;2023-03-01T06:30:06;1.40;99.80
15690;DHT22;7945;48.816;11.506;2023-03-01T06:32:37;1.60;99.50
15690;DHT22;7945;48.816;11.506;2023-03-01T06:35:08;1.80;99.00
15690;DHT22;7945;48.816;11.506;2023-03-01T06:37:35;2.00;98.80
15690;DHT22;7945;48.816;11.506;2023-03-01T06:40:03;2.10;98.60
15690;DHT22;7945;48.816;11.506;2023-03-01T06:42:33;2.10;98.40
15690;DHT22;7945;48.816;11.506;2023-03-01T06:45:00;2.00;98.50
15690;DHT22;7945;48.816;11.506;2023-03-01T06:47:27;2.00;98.60
15690;DHT22;7945;48.816;11.506;2023-03-01T06:49:55;1.90;98.60
15690;DHT22;7945;48.816;11.506;2023-03-01T06:52:22;1.90;98.70
15690;DHT22;7945;48.816;11.506;2023-03-01T06:54:48;1.90;98.80
15690;DHT22;7945;48.816;11.506;2023-03-01T06:57:15;1.90;99.10
15690;DHT22;7945;48.816;11.506;2023-03-01T06:59:42;2.00;98.80
15690;DHT22;7945;48.816;11.506;2023-03-01T07:02:10;2.00;98.70
15690;DHT22;7945;48.816;11.506;2023-03-01T07:04:37;2.10;98.70
15690;DHT22;7945;48.816;11.506;2023-03-01T07:07:05;2.10;98.60
15690;DHT22;7945;48.816;11.506;2023-03-01T07:09:32;2.10;98.60
15690;DHT22;7945;48.816;11.506;2023-03-01T07:11:59;2.10;98.60
15690;DHT22;7945;48.816;11.506;2023-03-01T07:14:25;2.10;98.50
15690;DHT22;7945;48.816;11.506;2023-03-01T07:16:52;2.30;98.50
15690;DHT22;7945;48.816;11.506;2023-03-01T07:19:20;2.40;98.20
15690;DHT22;7945;48.816;11.506;2023-03-01T07:21:46;2.50;97.90
15690;DHT22;7945;48.816;11.506;2023-03-01T07:24:14;2.60;97.90
15690;DHT22;7945;48.816;11.506;2023-03-01T07:26:41;2.60;97.90
15690;DHT22;7945;48.816;11.506;2023-03-01T07:29:10;2.50;98.20
15690;DHT22;7945;48.816;11.506;2023-03-01T07:31:37;2.50;98.00
15690;DHT22;7945;48.816;11.506;2023-03-01T07:34:03;2.50;98.20
15690;DHT22;7945;48.816;11.506;2023-03-01T07:36:30;2.60;98.10
15690;DHT22;7945;48.816;11.506;2023-03-01T07:38:57;2.60;97.90
15690;DHT22;7945;48.816;11.506;2023-03-01T07:41:25;2.60;97.80
15690;DHT22;7945;48.816;11.506;2023-03-01T07:43:52;2.60;97.80
15690;DHT22;7945;48.816;11.506;2023-03-01T07:46:18;2.60;97.70
15690;DHT22;7945;48.816;11.506;2023-03-01T07:48:45;2.60;97.90
15690;DHT22;7945;48.816;11.506;2023-03-01T07:51:12;2.60;97.70
15690;DHT22;7945;48.816;11.506;2023-03-01T07:53:39;2.70;97.70
15690;DHT22;7945;48.816;11.506;2023-03-01T07:56:07;2.70;97.60
15690;DHT22;7945;48.816;11.506;2023-03-01T07:58:36;2.70;97.80
15690;DHT22;7945;48.816;11.506;2023-03-01T08:01:05;2.80;97.50
15690;DHT22;7945;48.816;11.506;2023-03-01T08:03:32;2.80;97.40
15690;DHT22;7945;48.816;11.506;2023-03-01T08:06:46;2.80;97.60
15690;DHT22;7945;48.816;11.506;2023-03-01T08:09:12;2.90;97.50
15690;DHT22;7945;48.816;11.506;2023-03-01T08:11:39;2.80;97.50
15690;DHT22;7945;48.816;11.506;2023-03-01T08:14:06;2.90;97.60
15690;DHT22;7945;48.816;11.506;2023-03-01T08:16:32;2.90;97.50
15690;DHT22;7945;48.816;11.506;2023-03-01T08:19:04;3.00;97.30
15690;DHT22;7945;48.816;11.506;2023-03-01T08:21:30;3.00;97.10
15690;DHT22;7945;48.816;11.506;2023-03-01T08:23:58;3.10;97.20
15690;DHT22;7945;48.816;11.506;2023-03-01T08:26:25;3.10;97.10
15690;DHT22;7945;48.816;11.506;2023-03-01T08:28:52;3.10;96.90
15690;DHT22;7945;48.816;11.506;2023-03-01T08:31:20;3.10;96.90
15690;DHT22;7945;48.816;11.506;2023-03-01T08:33:49;3.10;96.90
15690;DHT22;7945;48.816;11.506;2023-03-01T08:36:20;3.20;97.00
15690;DHT22;7945;48.816;11.506;2023-03-01T08:38:47;3.20;96.80
15690;DHT22;7945;48.816;11.506;2023-03-01T08:41:15;3.30;96.60
15690;DHT22;7945;48.816;11.506;2023-03-01T08:43:42;3.30;96.50
15690;DHT22;7945;48.816;11.506;2023-03-01T08:46:09;3.30;96.70
15690;DHT22;7945;48.816;11.506;2023-03-01T08:48:36;3.30;96.80
15690;DHT22;7945;48.816;11.506;2023-03-01T08:51:11;3.40;96.70
15690;DHT22;7945;48.816;11.506;2023-03-01T08:53:39;3.40;96.60
15690;DHT22;7945;48.816;11.506;2023-03-01T08:56:06;3.50;96.70
15690;DHT22;7945;48.816;11.506;2023-03-01T08:58:35;3.60;96.30
15690;DHT22;7945;48.816;11.506;2023-03-01T09:01:07;3.80;96.50
15690;DHT22;7945;48.816;11.506;2023-03-01T09:03:34;3.90;95.90
15690;DHT22;7945;48.816;11.506;2023-03-01T09:06:01;4.10;95.90
15690;DHT22;7945;48.816;11.506;2023-03-01T09:08:28;4.20;95.30
15690;DHT22;7945;48.816;11.506;2023-03-01T09:10:55;4.20;94.90
15690;DHT22;7945;48.816;11.506;2023-03-01T09:13:21;4.30;95.30
15690;DHT22;7945;48.816;11.506;2023-03-01T09:15:51;4.40;94.50
15690;DHT22;7945;48.816;11.506;2023-03-01T09:18:18;4.40;94.50
15690;DHT22;7945;48.816;11.506;2023-03-01T09:20:45;4.50;94.30
15690;DHT22;7945;48.816;11.506;2023-03-01T09:23:11;4.60;94.30
15690;DHT22;7945;48.816;11.506;2023-03-01T09:25:38;4.70;94.10
15690;DHT22;7945;48.816;11.506;2023-03-01T09:28:05;4.80;94.10
15690;DHT22;7945;48.816;11.506;2023-03-01T09:30:31;5.00;94.40
15690;DHT22;7945;48.816;11.506;2023-03-01T09:32:59;5.10;93.10
15690;DHT22;7945;48.816;11.506;2023-03-01T09:35:26;5.10;93.20
15690;DHT22;7945;48.816;11.506;2023-03-01T09:37:53;5.10;92.80
15690;DHT22;7945;48.816;11.506;2023-03-01T09:40:21;5.10;92.90
15690;DHT22;7945;48.816;11.506;2023-03-01T09:42:53;5.10;92.40
15690;DHT22;7945;48.816;11.506;2023-03-01T09:45:27;5.20;92.60
15690;DHT22;7945;48.816;11.506;2023-03-01T09:47:55;5.20;92.20
15690;DHT22;7945;48.816;11.506;2023-03-01T09:50:26;5.30;92.40
15690;DHT22;7945;48.816;11.506;2023-03-01T09:53:00;5.30;92.00
15690;DHT22;7945;48.816;11.506;2023-03-01T09:55:31;5.30;92.60
15690;DHT22;7945;48.816;11.506;2023-03-01T09:58:04;5.40;92.20
15690;DHT22;7945;48.816;11.506;2023-03-01T10:00:37;5.40;92.40
15690;DHT22;7945;48.816;11.506;2023-03-01T10:03:13;5.40;92.70
15690;DHT22;7945;48.816;11.506;2023-03-01T10:05:50;5.40;92.60
15690;DHT22;7945;48.816;11.506;2023-03-01T10:08:27;5.50;92.80
15690;DHT22;7945;48.816;11.506;2023-03-01T10:10:57;5.60;92.50
15690;DHT22;7945;48.816;11.506;2023-03-01T10:13:28;5.70;92.80
15690;DHT22;7945;48.816;11.506;2023-03-01T10:15:57;5.80;92.10
15690;DHT22;7945;48.816;11.506;2023-03-01T10:18:29;5.90;91.80
15690;DHT22;7945;48.816;11.506;2023-03-01T10:21:01;5.90;92.20
15690;DHT22;7945;48.816;11.506;2023-03-01T10:23:31;6.00;92.00
15690;DHT22;7945;48.816;11.506;2023-03-01T10:26:16;6.00;91.60
15690;DHT22;7945;48.816;11.506;2023-03-01T10:28:55;6.10;91.20
15690;DHT22;7945;48.816;11.506;2023-03-01T10:31:24;6.10;91.00
15690;DHT22;7945;48.816;11.506;2023-03-01T10:33:53;6.20;91.70
15690;DHT22;7945;48.816;11.506;2023-03-01T10:36:23;6.30;91.40
15690;DHT22;7945;48.816;11.506;2023-03-01T10:38:52;6.40;91.10
15690;DHT22;7945;48.816;11.506;2023-03-01T10:41:20;6.40;91.10
15690;DHT22;7945;48.816;11.506;2023-03-01T10:43:50;6.50;90.80
15690;DHT22;7945;48.816;11.506;2023-03-01T10:46:27;6.50;91.10
15690;DHT22;7945;48.816;11.506;2023-03-01T10:49:12;6.70;90.90
15690;DHT22;7945;48.816;11.506;2023-03-01T10:51:42;6.70;90.60
15690;DHT22;7945;48.816;11.506;2023-03-01T10:54:16;6.90;90.80
15690;DHT22;7945;48.816;11.506;2023-03-01T10:56:48;7.00;89.80
15690;DHT22;7945;48.816;11.506;2023-03-01T10:59:24;7.00;90.00
15690;DHT22;7945;48.816;11.506;2023-03-01T11:02:08;6.90;89.90
15690;DHT22;7945;48.816;11.506;2023-03-01T11:04:56;6.90;89.40
15690;DHT22;7945;48.816;11.506;2023-03-01T11:07:25;7.00;89.90
15690;DHT22;7945;48.816;11.506;2023-03-01T11:09:52;7.10;90.00
15690;DHT22;7945;48.816;11.506;2023-03-01T11:12:20;7.20;88.70
15690;DHT22;7945;48.816;11.506;2023-03-01T11:14:49;7.20;88.90
15690;DHT22;7945;48.816;11.506;2023-03-01T11:17:21;7.20;88.30
15690;DHT22;7945;48.816;11.506;2023-03-01T11:20:00;7.20;89.20
15690;DHT22;7945;48.816;11.506;2023-03-01T11:22:32;7.30;88.40
15690;DHT22;7945;48.816;11.506;2023-03-01T11:24:59;7.30;88.90
15690;DHT22;7945;48.816;11.506;2023-03-01T11:27:29;7.30;88.60
15690;DHT22;7945;48.816;11.506;2023-03-01T11:30:00;7.40;89.80
15690;DHT22;7945;48.816;11.506;2023-03-01T11:32:35;7.40;87.90
15690;DHT22;7945;48.816;11.506;2023-03-01T11:35:10;7.50;88.90
15690;DHT22;7945;48.816;11.506;2023-03-01T11:37:46;7.50;88.80
15690;DHT22;7945;48.816;11.506;2023-03-01T11:40:17;7.60;89.30
15690;DHT22;7945;48.816;11.506;2023-03-01T11:43:00;7.80;87.70
15690;DHT22;7945;48.816;11.506;2023-03-01T11:45:38;7.80;86.50
15690;DHT22;7945;48.816;11.506;2023-03-01T11:48:30;7.80;87.20
15690;DHT22;7945;48.816;11.506;2023-03-01T11:51:01;7.80;87.30
15690;DHT22;7945;48.816;11.506;2023-03-01T11:53:47;7.90;87.60
15690;DHT22;7945;48.816;11.506;2023-03-01T11:56:22;7.90;87.70
15690;DHT22;7945;48.816;11.506;2023-03-01T11:59:02;8.00;86.80
15690;DHT22;7945;48.816;11.506;2023-03-01T12:01:40;8.00;87.70
15690;DHT22;7945;48.816;11.506;2023-03-01T12:04:23;8.10;87.10
15690;DHT22;7945;48.816;11.506;2023-03-01T12:06:57;8.20;86.60
15690;DHT22;7945;48.816;11.506;2023-03-01T12:09:55;8.40;86.10
15690;DHT22;7945;48.816;11.506;2023-03-01T12:12:30;8.50;85.70
15690;DHT22;7945;48.816;11.506;2023-03-01T12:18:13;8.40;85.00
15690;DHT22;7945;48.816;11.506;2023-03-01T12:20:47;8.40;86.10
15690;DHT22;7945;48.816;11.506;2023-03-01T12:23:33;8.10;86.70
15690;DHT22;7945;48.816;11.506;2023-03-01T12:26:07;8.00;86.00
15690;DHT22;7945;48.816;11.506;2023-03-01T12:28:49;7.90;86.70
15690;DHT22;7945;48.816;11.506;2023-03-01T12:31:44;8.00;87.10
15690;DHT22;7945;48.816;11.506;2023-03-01T12:34:28;8.00;86.70
15690;DHT22;7945;48.816;11.506;2023-03-01T12:37:22;8.10;87.50
15690;DHT22;7945;48.816;11.506;2023-03-01T12:40:21;8.30;86.30
15690;DHT22;7945;48.816;11.506;2023-03-01T12:43:07;8.30;86.70
15690;DHT22;7945;48.816;11.506;2023-03-01T12:45:47;8.40;87.10
15690;DHT22;7945;48.816;11.506;2023-03-01T12:48:24;8.30;86.40
15690;DHT22;7945;48.816;11.506;2023-03-01T12:50:53;8.30;86.60
15690;DHT22;7945;48.816;11.506;2023-03-01T12:53:24;8.30;87.40
15690;DHT22;7945;48.816;11.506;2023-03-01T12:55:52;8.00;88.30
15690;DHT22;7945;48.816;11.506;2023-03-01T12:58:26;8.40;88.40
15690;DHT22;7945;48.816;11.506;2023-03-01T13:01:05;8.50;87.80
15690;DHT22;7945;48.816;11.506;2023-03-01T13:03:42;8.60;86.70
15690;DHT22;7945;48.816;11.506;2023-03-01T13:06:18;8.60;86.00
15690;DHT22;7945;48.816;11.506;2023-03-01T13:08:54;8.60;86.30
15690;DHT22;7945;48.816;11.506;2023-03-01T13:11:23;8.60;86.50
15690;DHT22;7945;48.816;11.506;2023-03-01T13:13:51;8.50;86.60
15690;DHT22;7945;48.816;11.506;2023-03-01T13:16:38;8.60;88.30
15690;DHT22;7945;48.816;11.506;2023-03-01T13:19:12;8.70;87.40
15690;DHT22;7945;48.816;11.506;2023-03-01T13:21:40;8.70;86.60
15690;DHT22;7945;48.816;11.506;2023-03-01T13:24:24;8.80;87.60
15690;DHT22;7945;48.816;11.506;2023-03-01T13:27:09;8.80;86.70
15690;DHT22;7945;48.816;11.506;2023-03-01T13:29:46;8.70;86.10
15690;DHT22;7945;48.816;11.506;2023-03-01T13:32:20;8.70;86.40
15690;DHT22;7945;48.816;11.506;2023-03-01T13:34:49;8.70;86.70
15690;DHT22;7945;48.816;11.506;2023-03-01T13:37:32;8.70;86.60
15690;DHT22;7945;48.816;11.506;2023-03-01T13:40:07;8.80;87.90
15690;DHT22;7945;48.816;11.506;2023-03-01T13:42:53;8.80;86.70
15690;DHT22;7945;48.816;11.506;2023-03-01T13:45:34;8.80;86.10
15690;DHT22;7945;48.816;11.506;2023-03-01T13:48:04;8.80;86.70
15690;DHT22;7945;48.816;11.506;2023-03-01T13:50:42;8.80;86.60
15690;DHT22;7945;48.816;11.506;2023-03-01T13:53:15;8.80;86.60
15690;DHT22;7945;48.816;11.506;2023-03-01T13:55:44;8.80;86.70
15690;DHT22;7945;48.816;11.506;2023-03-01T13:58:19;8.80;86.00
15690;DHT22;7945;48.816;11.506;2023-03-01T14:00:56;8.80;85.50
15690;DHT22;7945;48.816;11.506;2023-03-01T14:03:23;8.80;85.80
15690;DHT22;7945;48.816;11.506;2023-03-01T14:06:02;8.80;85.90
15690;DHT22;7945;48.816;11.506;2023-03-01T14:08:32;8.90;87.10
15690;DHT22;7945;48.816;11.506;2023-03-01T14:14:16;8.90;87.70
15690;DHT22;7945;48.816;11.506;2023-03-01T14:16:52;9.00;87.30
15690;DHT22;7945;48.816;11.506;2023-03-01T14:19:26;9.00;87.10
15690;DHT22;7945;48.816;11.506;2023-03-01T14:21:59;9.00;86.20
15690;DHT22;7945;48.816;11.506;2023-03-01T14:24:28;9.00;86.90
15690;DHT22;7945;48.816;11.506;2023-03-01T14:26:55;9.00;85.90
15690;DHT22;7945;48.816;11.506;2023-03-01T14:29:27;9.00;86.90
15690;DHT22;7945;48.816;11.506;2023-03-01T14:32:07;9.00;87.60
15690;DHT22;7945;48.816;11.506;2023-03-01T14:34:34;9.10;88.30
15690;DHT22;7945;48.816;11.506;2023-03-01T14:37:10;9.00;88.40
15690;DHT22;7945;48.816;11.506;2023-03-01T14:39:37;9.00;87.90
15690;DHT22;7945;48.816;11.506;2023-03-01T14:42:04;9.00;87.60
15690;DHT22;7945;48.816;11.506;2023-03-01T14:44:31;9.10;88.70
15690;DHT22;7945;48.816;11.506;2023-03-01T14:47:04;9.00;88.30
15690;DHT22;7945;48.816;11.506;2023-03-01T14:49:32;9.10;88.70
15690;DHT22;7945;48.816;11.506;2023-03-01T14:52:01;9.10;88.70
15690;DHT22;7945;48.816;11.506;2023-03-01T14:54:35;9.10;88.80
15690;DHT22;7945;48.816;11.506;2023-03-01T14:57:04;9.10;88.80
15690;DHT22;7945;48.816;11.506;2023-03-01T14:59:33;9.10;88.60
15690;DHT22;7945;48.816;11.506;2023-03-01T15:02:00;9.10;88.80
15690;DHT22;7945;48.816;11.506;2023-03-01T15:04:28;9.10;89.90
15690;DHT22;7945;48.816;11.506;2023-03-01T15:06:57;9.10;89.20
15690;DHT22;7945;48.816;11.506;2023-03-01T15:09:32;9.10;88.90
15690;DHT22;7945;48.816;11.506;2023-03-01T15:12:22;9.10;89.30
15690;DHT22;7945;48.816;11.506;2023-03-01T15:14:47;9.10;88.50
15690;DHT22;7945;48.816;11.506;2023-03-01T15:17:20;9.20;88.80
15690;DHT22;7945;48.816;11.506;2023-03-01T15:19:49;9.20;89.30
15690;DHT22;7945;48.816;11.506;2023-03-01T15:22:16;9.10;88.80
15690;DHT22;7945;48.816;11.506;2023-03-01T15:24:47;9.10;88.30
15690;DHT22;7945;48.816;11.506;2023-03-01T15:27:15;9.10;88.70
15690;DHT22;7945;48.816;11.506;2023-03-01T15:29:49;9.10;88.40
15690;DHT22;7945;48.816;11.506;2023-03-01T15:32:26;9.10;89.20
15690;DHT22;7945;48.816;11.506;2023-03-01T15:34:54;9.10;89.20
15690;DHT22;7945;48.816;11.506;2023-03-01T15:37:44;9.20;89.30
15690;DHT22;7945;48.816;11.506;2023-03-01T15:40:19;9.10;89.40
15690;DHT22;7945;48.816;11.506;2023-03-01T15:42:46;9.10;89.50
15690;DHT22;7945;48.816;11.506;2023-03-01T15:45:22;9.10;89.80
15690;DHT22;7945;48.816;11.506;2023-03-01T15:47:52;9.00;90.00
15690;DHT22;7945;48.816;11.506;2023-03-01T15:50:22;9.00;90.00
15690;DHT22;7945;48.816;11.506;2023-03-01T15:52:51;8.90;90.00
15690;DHT22;7945;48.816;11.506;2023-03-01T15:55:20;8.80;90.00
15690;DHT22;7945;48.816;11.506;2023-03-01T15:57:48;8.80;90.20
15690;DHT22;7945;48.816;11.506;2023-03-01T16:00:17;8.70;90.40
15690;DHT22;7945;48.816;11.506;2023-03-01T16:02:44;8.70;90.20
15690;DHT22;7945;48.816;11.506;2023-03-01T16:05:19;8.70;90.40
15690;DHT22;7945;48.816;11.506;2023-03-01T16:07:47;8.60;90.50
15690;DHT22;7945;48.816;11.506;2023-03-01T16:10:14;8.50;90.60
15690;DHT22;7945;48.816;11.506;2023-03-01T16:12:41;8.50;90.60
15690;DHT22;7945;48.816;11.506;2023-03-01T16:15:15;8.40;90.60